DAL2467 KLAS-KSLC
Flight info
| Callsign | DAL2467 |
|---|---|
| Flight time | 0h 57m |
| Altitude | 33000 |
| Route | RATPK3 FRNCK MLF PITTT2 |
| Aircraft | A321/M-SDE3FGHIRWY/LB1 |
Departure
| Time | 2026-05-05 13:09 |
|---|---|
| Airport | Harry Reid International Airport (KLAS) |
Arrival
| Time | 2026-05-05 14:06 |
|---|---|
| Airport | Salt Lake City International Airport (KSLC) |
| Time | Latitude | Longitude | Altitude | Speed | Heading |
|---|---|---|---|---|---|
| 2026-05-05 12:43 | 36.08044 | -115.13880 | 2114 ft | 0 kts | 343° |
| 2026-05-05 12:59 | 36.08036 | -115.13878 | 2113 ft | 4 kts | 343° |
| 2026-05-05 12:59 | 36.08011 | -115.13868 | 2115 ft | 4 kts | 337° |
| 2026-05-05 13:00 | 36.07985 | -115.13829 | 2118 ft | 3 kts | 228° |
| 2026-05-05 13:00 | 36.07987 | -115.13827 | 2116 ft | 0 kts | 225° |
| 2026-05-05 13:03 | 36.07985 | -115.13829 | 2118 ft | 2 kts | 225° |
| 2026-05-05 13:03 | 36.07961 | -115.13860 | 2117 ft | 8 kts | 225° |
| 2026-05-05 13:03 | 36.07921 | -115.13909 | 2119 ft | 7 kts | 224° |
| 2026-05-05 13:04 | 36.07891 | -115.13940 | 2120 ft | 6 kts | 212° |
| 2026-05-05 13:04 | 36.07845 | -115.13939 | 2123 ft | 7 kts | 150° |
| 2026-05-05 13:04 | 36.07827 | -115.13875 | 2125 ft | 10 kts | 92° |
| 2026-05-05 13:04 | 36.07828 | -115.13772 | 2125 ft | 15 kts | 90° |
| 2026-05-05 13:05 | 36.07827 | -115.13628 | 2125 ft | 17 kts | 90° |
| 2026-05-05 13:05 | 36.07828 | -115.13497 | 2131 ft | 14 kts | 89° |
| 2026-05-05 13:05 | 36.07827 | -115.13385 | 2126 ft | 13 kts | 91° |
| 2026-05-05 13:05 | 36.07826 | -115.13240 | 2123 ft | 20 kts | 90° |
| 2026-05-05 13:06 | 36.07828 | -115.13070 | 2120 ft | 20 kts | 88° |
| 2026-05-05 13:06 | 36.07828 | -115.12908 | 2120 ft | 18 kts | 90° |
| 2026-05-05 13:06 | 36.07828 | -115.12747 | 2116 ft | 19 kts | 91° |
| 2026-05-05 13:06 | 36.07830 | -115.12581 | 2115 ft | 19 kts | 89° |
| 2026-05-05 13:07 | 36.07827 | -115.12436 | 2118 ft | 15 kts | 90° |
| 2026-05-05 13:07 | 36.07827 | -115.12312 | 2118 ft | 14 kts | 89° |
| 2026-05-05 13:07 | 36.07782 | -115.12239 | 2119 ft | 10 kts | 166° |
| 2026-05-05 13:07 | 36.07727 | -115.12236 | 2122 ft | 8 kts | 181° |
| 2026-05-05 13:08 | 36.07660 | -115.12254 | 2123 ft | 13 kts | 225° |
| 2026-05-05 13:08 | 36.07643 | -115.12396 | 2121 ft | 24 kts | 272° |
| 2026-05-05 13:08 | 36.07640 | -115.12718 | 2124 ft | 68 kts | 270° |
| 2026-05-05 13:08 | 36.07637 | -115.13638 | 2127 ft | 142 kts | 270° |
| 2026-05-05 13:09 | 36.07637 | -115.15104 | 2196 ft | 192 kts | 270° |
| 2026-05-05 13:09 | 36.07740 | -115.16791 | 2843 ft | 202 kts | 272° |
| 2026-05-05 13:09 | 36.07908 | -115.18521 | 3411 ft | 208 kts | 276° |
| 2026-05-05 13:09 | 36.08079 | -115.20385 | 3669 ft | 230 kts | 272° |
| 2026-05-05 13:10 | 36.08138 | -115.22443 | 4012 ft | 248 kts | 269° |
| 2026-05-05 13:10 | 36.08138 | -115.24620 | 4582 ft | 258 kts | 268° |
| 2026-05-05 13:10 | 36.08290 | -115.26861 | 5240 ft | 265 kts | 287° |
| 2026-05-05 13:10 | 36.09308 | -115.28706 | 6128 ft | 264 kts | 322° |
| 2026-05-05 13:11 | 36.10962 | -115.29676 | 6894 ft | 266 kts | 343° |
| 2026-05-05 13:11 | 36.12789 | -115.30039 | 7590 ft | 269 kts | 6° |
| 2026-05-05 13:11 | 36.14575 | -115.29356 | 8252 ft | 272 kts | 30° |
| 2026-05-05 13:11 | 36.16119 | -115.27948 | 8693 ft | 285 kts | 49° |
| 2026-05-05 13:12 | 36.17240 | -115.25891 | 9146 ft | 293 kts | 66° |
| 2026-05-05 13:12 | 36.18017 | -115.23548 | 9774 ft | 297 kts | 70° |
| 2026-05-05 13:12 | 36.18780 | -115.21148 | 10292 ft | 307 kts | 70° |
| 2026-05-05 13:12 | 36.19397 | -115.18529 | 10446 ft | 327 kts | 81° |
| 2026-05-05 13:13 | 36.19609 | -115.15649 | 10647 ft | 344 kts | 91° |
| 2026-05-05 13:13 | 36.19602 | -115.12659 | 11185 ft | 351 kts | 91° |
| 2026-05-05 13:13 | 36.19603 | -115.09621 | 11817 ft | 355 kts | 91° |
| 2026-05-05 13:13 | 36.19609 | -115.06553 | 12455 ft | 358 kts | 91° |
| 2026-05-05 13:14 | 36.19615 | -115.03455 | 13056 ft | 362 kts | 91° |
| 2026-05-05 13:14 | 36.19619 | -115.00324 | 13662 ft | 365 kts | 91° |
| 2026-05-05 13:14 | 36.19621 | -114.97163 | 14252 ft | 369 kts | 91° |
| 2026-05-05 13:14 | 36.19620 | -114.93967 | 14816 ft | 373 kts | 91° |
| 2026-05-05 13:15 | 36.19854 | -114.90752 | 15386 ft | 379 kts | 80° |
| 2026-05-05 13:15 | 36.20623 | -114.87611 | 15933 ft | 384 kts | 68° |
| 2026-05-05 13:15 | 36.21920 | -114.84703 | 16467 ft | 389 kts | 55° |
| 2026-05-05 13:15 | 36.23625 | -114.82077 | 16981 ft | 393 kts | 51° |
| 2026-05-05 13:16 | 36.25379 | -114.79462 | 17493 ft | 397 kts | 51° |
| 2026-05-05 13:16 | 36.27142 | -114.76816 | 17988 ft | 400 kts | 51° |
| 2026-05-05 13:16 | 36.28919 | -114.74139 | 18489 ft | 404 kts | 51° |
| 2026-05-05 13:16 | 36.30712 | -114.71436 | 18974 ft | 407 kts | 51° |
| 2026-05-05 13:17 | 36.32519 | -114.68718 | 19427 ft | 411 kts | 51° |
| 2026-05-05 13:17 | 36.34344 | -114.65969 | 19881 ft | 414 kts | 51° |
| 2026-05-05 13:17 | 36.36207 | -114.63217 | 20317 ft | 418 kts | 47° |
| 2026-05-05 13:17 | 36.38353 | -114.60761 | 20726 ft | 423 kts | 38° |
| 2026-05-05 13:18 | 36.40699 | -114.58537 | 21137 ft | 426 kts | 37° |
| 2026-05-05 13:18 | 36.43071 | -114.56298 | 21557 ft | 430 kts | 37° |
| 2026-05-05 13:18 | 36.45454 | -114.54044 | 21976 ft | 433 kts | 38° |
| 2026-05-05 13:18 | 36.47856 | -114.51770 | 22375 ft | 436 kts | 38° |
| 2026-05-05 13:19 | 36.50273 | -114.49472 | 22765 ft | 439 kts | 38° |
| 2026-05-05 13:19 | 36.52709 | -114.47155 | 23139 ft | 442 kts | 38° |
| 2026-05-05 13:19 | 36.55214 | -114.44928 | 23506 ft | 445 kts | 32° |
| 2026-05-05 13:19 | 36.57852 | -114.42897 | 23874 ft | 448 kts | 32° |
| 2026-05-05 13:20 | 36.60509 | -114.40850 | 24232 ft | 451 kts | 32° |
| 2026-05-05 13:20 | 36.63184 | -114.38783 | 24559 ft | 454 kts | 32° |
| 2026-05-05 13:20 | 36.65873 | -114.36698 | 24872 ft | 457 kts | 32° |
| 2026-05-05 13:20 | 36.68586 | -114.34593 | 25177 ft | 461 kts | 32° |
| 2026-05-05 13:21 | 36.71318 | -114.32471 | 25480 ft | 465 kts | 31° |
| 2026-05-05 13:21 | 36.74075 | -114.30329 | 25784 ft | 468 kts | 31° |
| 2026-05-05 13:21 | 36.76842 | -114.28179 | 26090 ft | 471 kts | 31° |
| 2026-05-05 13:21 | 36.79637 | -114.26007 | 26366 ft | 474 kts | 31° |
| 2026-05-05 13:22 | 36.82447 | -114.23818 | 26657 ft | 477 kts | 31° |
| 2026-05-05 13:22 | 36.85268 | -114.21614 | 26929 ft | 480 kts | 31° |
| 2026-05-05 13:22 | 36.88109 | -114.19394 | 27208 ft | 483 kts | 31° |
| 2026-05-05 13:22 | 36.90964 | -114.17160 | 27495 ft | 486 kts | 31° |
| 2026-05-05 13:23 | 36.93840 | -114.14910 | 27791 ft | 488 kts | 31° |
| 2026-05-05 13:23 | 36.96721 | -114.12655 | 28070 ft | 490 kts | 31° |
| 2026-05-05 13:23 | 36.99620 | -114.10386 | 28348 ft | 492 kts | 31° |
| 2026-05-05 13:23 | 37.02493 | -114.08137 | 28616 ft | 495 kts | 31° |
| 2026-05-05 13:24 | 37.05414 | -114.05847 | 28887 ft | 496 kts | 31° |
| 2026-05-05 13:24 | 37.08340 | -114.03549 | 29145 ft | 498 kts | 31° |
| 2026-05-05 13:24 | 37.11318 | -114.01207 | 29420 ft | 499 kts | 31° |
| 2026-05-05 13:24 | 37.14225 | -113.98919 | 29695 ft | 500 kts | 31° |
| 2026-05-05 13:25 | 37.17182 | -113.96589 | 29878 ft | 504 kts | 31° |
| 2026-05-05 13:25 | 37.20160 | -113.94241 | 30028 ft | 508 kts | 31° |
| 2026-05-05 13:25 | 37.23159 | -113.91877 | 30255 ft | 510 kts | 31° |
| 2026-05-05 13:25 | 37.26163 | -113.89507 | 30505 ft | 511 kts | 31° |
| 2026-05-05 13:26 | 37.29174 | -113.87128 | 30856 ft | 510 kts | 31° |
| 2026-05-05 13:26 | 37.32169 | -113.84753 | 31182 ft | 510 kts | 31° |
| 2026-05-05 13:26 | 37.35175 | -113.82365 | 31494 ft | 511 kts | 31° |
| 2026-05-05 13:26 | 37.38175 | -113.79982 | 31801 ft | 510 kts | 31° |
| 2026-05-05 13:27 | 37.41179 | -113.77599 | 32069 ft | 511 kts | 31° |
| 2026-05-05 13:27 | 37.44194 | -113.75210 | 32333 ft | 511 kts | 31° |
| 2026-05-05 13:27 | 37.47204 | -113.72822 | 32606 ft | 512 kts | 31° |
| 2026-05-05 13:27 | 37.50221 | -113.70424 | 32851 ft | 514 kts | 31° |
| 2026-05-05 13:28 | 37.56216 | -113.65635 | 32955 ft | 505 kts | 31° |
| 2026-05-05 13:28 | 37.62120 | -113.60906 | 32964 ft | 502 kts | 31° |
| 2026-05-05 13:29 | 37.68012 | -113.56193 | 32967 ft | 501 kts | 31° |
| 2026-05-05 13:29 | 37.73897 | -113.51492 | 32968 ft | 500 kts | 31° |
| 2026-05-05 13:30 | 37.79787 | -113.46790 | 32968 ft | 501 kts | 31° |
| 2026-05-05 13:30 | 37.85686 | -113.42069 | 32969 ft | 501 kts | 31° |
| 2026-05-05 13:31 | 37.91580 | -113.37337 | 32970 ft | 502 kts | 31° |
| 2026-05-05 13:31 | 37.97480 | -113.32581 | 32967 ft | 503 kts | 31° |
| 2026-05-05 13:32 | 38.03351 | -113.27846 | 32960 ft | 504 kts | 31° |
| 2026-05-05 13:32 | 38.09252 | -113.23085 | 32997 ft | 501 kts | 31° |
| 2026-05-05 13:33 | 38.14165 | -113.19114 | 32982 ft | 499 kts | 31° |
| 2026-05-05 13:33 | 38.19968 | -113.14412 | 32974 ft | 496 kts | 31° |
| 2026-05-05 13:34 | 38.25778 | -113.09689 | 32981 ft | 496 kts | 31° |
| 2026-05-05 13:34 | 38.31580 | -113.04968 | 32976 ft | 494 kts | 31° |
| 2026-05-05 13:35 | 38.37505 | -113.00554 | 32968 ft | 492 kts | 21° |
| 2026-05-05 13:35 | 38.43814 | -112.97206 | 32959 ft | 491 kts | 20° |
| 2026-05-05 13:36 | 38.50124 | -112.93832 | 32959 ft | 491 kts | 20° |
| 2026-05-05 13:36 | 38.56422 | -112.90462 | 32953 ft | 491 kts | 20° |
| 2026-05-05 13:37 | 38.62721 | -112.87092 | 32959 ft | 491 kts | 20° |
| 2026-05-05 13:37 | 38.69027 | -112.83713 | 32967 ft | 490 kts | 20° |
| 2026-05-05 13:38 | 38.75310 | -112.80338 | 32961 ft | 489 kts | 20° |
| 2026-05-05 13:38 | 38.81580 | -112.76965 | 32967 ft | 488 kts | 20° |
| 2026-05-05 13:39 | 38.87829 | -112.73598 | 32967 ft | 486 kts | 20° |
| 2026-05-05 13:39 | 38.94059 | -112.70223 | 32961 ft | 485 kts | 21° |
| 2026-05-05 13:40 | 39.00266 | -112.66855 | 32963 ft | 484 kts | 21° |
| 2026-05-05 13:40 | 39.06473 | -112.63503 | 32962 ft | 482 kts | 21° |
| 2026-05-05 13:41 | 39.12648 | -112.60147 | 32784 ft | 482 kts | 21° |
| 2026-05-05 13:41 | 39.15723 | -112.58471 | 32534 ft | 478 kts | 21° |
| 2026-05-05 13:41 | 39.18768 | -112.56809 | 32147 ft | 473 kts | 21° |
| 2026-05-05 13:42 | 39.21797 | -112.55156 | 31530 ft | 472 kts | 21° |
| 2026-05-05 13:42 | 39.24814 | -112.53509 | 30936 ft | 470 kts | 21° |
| 2026-05-05 13:42 | 39.27815 | -112.51869 | 30397 ft | 466 kts | 22° |
| 2026-05-05 13:42 | 39.30828 | -112.50377 | 29861 ft | 461 kts | 15° |
| 2026-05-05 13:43 | 39.33917 | -112.49334 | 29330 ft | 457 kts | 13° |
| 2026-05-05 13:43 | 39.36947 | -112.48342 | 28806 ft | 452 kts | 13° |
| 2026-05-05 13:43 | 39.39984 | -112.47339 | 28285 ft | 449 kts | 13° |
| 2026-05-05 13:43 | 39.42993 | -112.46339 | 27758 ft | 444 kts | 13° |
| 2026-05-05 13:44 | 39.45979 | -112.45345 | 27248 ft | 440 kts | 14° |
| 2026-05-05 13:44 | 39.48932 | -112.44365 | 26736 ft | 436 kts | 13° |
| 2026-05-05 13:44 | 39.51852 | -112.43397 | 26244 ft | 431 kts | 14° |
| 2026-05-05 13:44 | 39.54742 | -112.42434 | 25751 ft | 426 kts | 14° |
| 2026-05-05 13:45 | 39.57600 | -112.41481 | 25288 ft | 422 kts | 14° |
| 2026-05-05 13:45 | 39.60424 | -112.40543 | 24813 ft | 416 kts | 14° |
| 2026-05-05 13:45 | 39.63210 | -112.39614 | 24351 ft | 411 kts | 14° |
| 2026-05-05 13:45 | 39.65968 | -112.38694 | 23892 ft | 406 kts | 14° |
| 2026-05-05 13:46 | 39.68691 | -112.37785 | 23418 ft | 402 kts | 14° |
| 2026-05-05 13:46 | 39.71388 | -112.36884 | 22957 ft | 398 kts | 14° |
| 2026-05-05 13:46 | 39.74059 | -112.35990 | 22475 ft | 394 kts | 14° |
| 2026-05-05 13:46 | 39.76698 | -112.35103 | 22020 ft | 390 kts | 14° |
| 2026-05-05 13:47 | 39.79319 | -112.34222 | 21552 ft | 387 kts | 14° |
| 2026-05-05 13:47 | 39.81919 | -112.33348 | 21072 ft | 383 kts | 14° |
| 2026-05-05 13:47 | 39.84475 | -112.32488 | 20705 ft | 376 kts | 13° |
| 2026-05-05 13:47 | 39.87006 | -112.31646 | 20259 ft | 376 kts | 14° |
| 2026-05-05 13:48 | 39.89516 | -112.30797 | 19786 ft | 370 kts | 15° |
| 2026-05-05 13:48 | 39.91999 | -112.29952 | 19320 ft | 368 kts | 14° |
| 2026-05-05 13:48 | 39.94474 | -112.29120 | 18865 ft | 366 kts | 14° |
| 2026-05-05 13:48 | 39.96939 | -112.28293 | 18405 ft | 364 kts | 14° |
| 2026-05-05 13:49 | 39.99383 | -112.27472 | 17951 ft | 361 kts | 15° |
| 2026-05-05 13:49 | 40.01809 | -112.26656 | 17502 ft | 359 kts | 15° |
| 2026-05-05 13:49 | 40.04191 | -112.25852 | 17063 ft | 357 kts | 14° |
| 2026-05-05 13:49 | 40.06604 | -112.25035 | 16846 ft | 352 kts | 14° |
| 2026-05-05 13:50 | 40.08979 | -112.24230 | 16678 ft | 354 kts | 15° |
| 2026-05-05 13:50 | 40.11350 | -112.23430 | 16483 ft | 350 kts | 15° |
| 2026-05-05 13:50 | 40.13676 | -112.22641 | 16305 ft | 349 kts | 14° |
| 2026-05-05 13:50 | 40.16013 | -112.21849 | 16128 ft | 346 kts | 14° |
| 2026-05-05 13:51 | 40.18353 | -112.21055 | 15945 ft | 348 kts | 14° |
| 2026-05-05 13:51 | 40.20701 | -112.20256 | 15761 ft | 347 kts | 14° |
| 2026-05-05 13:51 | 40.23028 | -112.19463 | 15580 ft | 345 kts | 14° |
| 2026-05-05 13:51 | 40.25352 | -112.18673 | 15398 ft | 344 kts | 14° |
| 2026-05-05 13:52 | 40.27668 | -112.17886 | 15222 ft | 343 kts | 14° |
| 2026-05-05 13:52 | 40.29970 | -112.17100 | 15048 ft | 342 kts | 14° |
| 2026-05-05 13:52 | 40.32266 | -112.16315 | 14905 ft | 341 kts | 14° |
| 2026-05-05 13:52 | 40.34554 | -112.15533 | 14781 ft | 340 kts | 14° |
| 2026-05-05 13:53 | 40.36841 | -112.14755 | 14651 ft | 339 kts | 14° |
| 2026-05-05 13:53 | 40.39126 | -112.13974 | 14521 ft | 338 kts | 14° |
| 2026-05-05 13:53 | 40.41403 | -112.13196 | 14392 ft | 338 kts | 14° |
| 2026-05-05 13:53 | 40.43676 | -112.12423 | 14262 ft | 337 kts | 13° |
| 2026-05-05 13:54 | 40.45941 | -112.11652 | 14135 ft | 336 kts | 13° |
| 2026-05-05 13:54 | 40.48200 | -112.10880 | 14010 ft | 335 kts | 14° |
| 2026-05-05 13:54 | 40.50457 | -112.10108 | 13689 ft | 334 kts | 14° |
| 2026-05-05 13:54 | 40.52702 | -112.09343 | 13391 ft | 332 kts | 13° |
| 2026-05-05 13:55 | 40.54936 | -112.08595 | 13094 ft | 330 kts | 11° |
| 2026-05-05 13:55 | 40.57202 | -112.08234 | 12808 ft | 327 kts | 1° |
| 2026-05-05 13:55 | 40.59474 | -112.08092 | 12531 ft | 326 kts | 1° |
| 2026-05-05 13:55 | 40.61735 | -112.07943 | 12234 ft | 324 kts | 1° |
| 2026-05-05 13:56 | 40.63979 | -112.07896 | 11955 ft | 321 kts | 354° |
| 2026-05-05 13:56 | 40.66200 | -112.08166 | 11869 ft | 322 kts | 353° |
| 2026-05-05 13:56 | 40.68428 | -112.08427 | 11761 ft | 321 kts | 353° |
| 2026-05-05 13:56 | 40.70654 | -112.08682 | 11651 ft | 321 kts | 354° |
| 2026-05-05 13:57 | 40.72878 | -112.08933 | 11521 ft | 321 kts | 354° |
| 2026-05-05 13:57 | 40.75099 | -112.09183 | 11410 ft | 320 kts | 354° |
| 2026-05-05 13:57 | 40.77293 | -112.09434 | 11284 ft | 311 kts | 354° |
| 2026-05-05 13:57 | 40.79411 | -112.09684 | 11093 ft | 302 kts | 354° |
| 2026-05-05 13:58 | 40.81469 | -112.09945 | 10760 ft | 294 kts | 354° |
| 2026-05-05 13:58 | 40.83482 | -112.10196 | 10510 ft | 294 kts | 354° |
| 2026-05-05 13:58 | 40.85549 | -112.10447 | 10044 ft | 299 kts | 354° |
| 2026-05-05 13:58 | 40.87598 | -112.10691 | 9712 ft | 296 kts | 355° |
| 2026-05-05 13:59 | 40.91631 | -112.11163 | 8967 ft | 289 kts | 355° |
| 2026-05-05 13:59 | 40.93627 | -112.11397 | 8588 ft | 288 kts | 355° |
| 2026-05-05 14:00 | 40.97569 | -112.11860 | 8009 ft | 277 kts | 355° |
| 2026-05-05 14:00 | 40.98839 | -112.12013 | 8009 ft | 266 kts | 355° |
| 2026-05-05 14:00 | 41.01194 | -112.11937 | 8028 ft | 248 kts | 15° |
| 2026-05-05 14:00 | 41.02706 | -112.10960 | 8022 ft | 241 kts | 39° |
| 2026-05-05 14:01 | 41.03786 | -112.09301 | 8015 ft | 239 kts | 62° |
| 2026-05-05 14:01 | 41.04326 | -112.07234 | 8015 ft | 238 kts | 82° |
| 2026-05-05 14:01 | 41.04306 | -112.05058 | 8019 ft | 238 kts | 101° |
| 2026-05-05 14:01 | 41.03732 | -112.03015 | 8017 ft | 238 kts | 121° |
| 2026-05-05 14:02 | 41.02667 | -112.01352 | 8015 ft | 237 kts | 141° |
| 2026-05-05 14:02 | 41.01233 | -112.00274 | 8017 ft | 238 kts | 161° |
| 2026-05-05 14:02 | 40.99605 | -111.99874 | 7879 ft | 239 kts | 174° |
| 2026-05-05 14:02 | 40.97944 | -111.99688 | 7588 ft | 238 kts | 175° |
| 2026-05-05 14:03 | 40.96298 | -111.99505 | 7276 ft | 237 kts | 175° |
| 2026-05-05 14:03 | 40.94660 | -111.99315 | 6963 ft | 235 kts | 175° |
| 2026-05-05 14:03 | 40.93034 | -111.99124 | 6655 ft | 233 kts | 175° |
| 2026-05-05 14:03 | 40.91421 | -111.98937 | 6343 ft | 232 kts | 175° |
| 2026-05-05 14:04 | 40.89824 | -111.98751 | 6038 ft | 229 kts | 175° |
| 2026-05-05 14:04 | 40.88255 | -111.98568 | 5728 ft | 228 kts | 175° |
| 2026-05-05 14:04 | 40.86688 | -111.98385 | 5449 ft | 222 kts | 173° |
| 2026-05-05 14:04 | 40.85190 | -111.98212 | 5147 ft | 210 kts | 173° |
| 2026-05-05 14:05 | 40.83788 | -111.98063 | 4854 ft | 194 kts | 172° |
| 2026-05-05 14:05 | 40.82543 | -111.97908 | 4654 ft | 168 kts | 170° |
| 2026-05-05 14:05 | 40.81424 | -111.97770 | 4390 ft | 157 kts | 171° |
| 2026-05-05 14:05 | 40.80378 | -111.97660 | 4243 ft | 142 kts | 171° |
| 2026-05-05 14:06 | 40.79569 | -111.97556 | 4233 ft | 76 kts | 174° |
| 2026-05-05 14:06 | 40.79291 | -111.97520 | 4235 ft | 23 kts | 174° |
| 2026-05-05 14:06 | 40.79154 | -111.97560 | 4235 ft | 19 kts | 212° |
| 2026-05-05 14:06 | 40.79060 | -111.97624 | 4239 ft | 12 kts | 202° |
| 2026-05-05 14:07 | 40.78993 | -111.97662 | 4241 ft | 9 kts | 203° |
| 2026-05-05 14:07 | 40.78936 | -111.97687 | 4240 ft | 10 kts | 190° |
| 2026-05-05 14:07 | 40.78840 | -111.97692 | 4238 ft | 18 kts | 175° |
| 2026-05-05 14:07 | 40.78738 | -111.97734 | 4238 ft | 16 kts | 246° |
| 2026-05-05 14:08 | 40.78725 | -111.97903 | 4237 ft | 20 kts | 268° |
| 2026-05-05 14:08 | 40.78721 | -111.98084 | 4235 ft | 19 kts | 265° |
| 2026-05-05 14:08 | 40.78712 | -111.98256 | 4233 ft | 16 kts | 267° |
| 2026-05-05 14:08 | 40.78704 | -111.98342 | 4233 ft | 5 kts | 238° |
| 2026-05-05 14:09 | 40.78676 | -111.98354 | 4233 ft | 3 kts | 183° |
| 2026-05-05 14:09 | 40.78659 | -111.98353 | 4233 ft | 2 kts | 175° |
| 2026-05-05 14:09 | 40.78652 | -111.98352 | 4233 ft | 0 kts | 175° |
| 2026-05-05 14:10 | 40.78648 | -111.98352 | 4233 ft | 2 kts | 175° |
| 2026-05-05 14:10 | 40.78643 | -111.98351 | 4234 ft | 1 kts | 175° |
| 2026-05-05 14:10 | 40.78641 | -111.98351 | 4233 ft | 0 kts | 175° |